Time;durP1;ratioP1;P1;durP2;ratioP2;P2;SDS_P1;SDS_P2;PMS_P1;PMS_P2;Temp;Humidity;BMP_temperature;BMP_pressure;BME280_temperature;BME280_humidity;BME280_pressure;Samples;Min_cycle;Max_cycle;Signal;HPM_P1;HPM_P2
2023/08/11 00:01:56;;;;;;;4.90;2.90;;;15.00;99.90;;;;;;5042735;28;20181;-82
2023/08/11 00:04:21;;;;;;;5.40;2.90;;;14.90;99.90;;;;;;5047734;28;20715;-82
2023/08/11 00:06:48;;;;;;;5.13;2.73;;;16.60;99.90;;;;;;5030895;28;20181;-82
2023/08/11 00:09:15;;;;;;;3.77;2.60;;;14.90;99.90;;;;;;5064628;28;20205;-85
2023/08/11 00:11:41;;;;;;;4.83;2.87;;;17.20;99.90;;;;;;5039597;28;21078;-81
2023/08/11 00:14:06;;;;;;;4.47;2.80;;;14.90;99.90;;;;;;5051050;28;20443;-82
2023/08/11 00:16:32;;;;;;;6.53;2.63;;;14.80;99.90;;;;;;5035119;28;20565;-81
2023/08/11 00:18:57;;;;;;;10.07;3.60;;;14.90;99.90;;;;;;5050756;28;20680;-83
2023/08/11 00:21:23;;;;;;;5.73;2.93;;;14.90;99.90;;;;;;5039956;28;20204;-82
2023/08/11 00:23:49;;;;;;;4.03;2.80;;;;;;;;;;5037547;28;20201;-83
2023/08/11 00:26:15;;;;;;;6.40;2.73;;;14.70;99.90;;;;;;5046972;28;20180;-81
2023/08/11 00:28:40;;;;;;;5.73;2.80;;;14.70;99.90;;;;;;5024834;28;20418;-84
2023/08/11 00:31:06;;;;;;;3.97;3.00;;;14.70;99.90;;;;;;5047240;28;20208;-83
2023/08/11 00:33:32;;;;;;;5.13;3.50;;;16.30;99.90;;;;;;5036438;28;20177;-82
2023/08/11 00:35:57;;;;;;;4.97;3.57;;;14.70;99.90;;;;;;5034144;28;20231;-80
2023/08/11 00:38:25;;;;;;;9.80;3.80;;;14.60;99.90;;;;;;5047579;28;20185;-82
2023/08/11 00:40:51;;;;;;;9.30;3.40;;;14.50;99.90;;;;;;5043384;28;20333;-84
2023/08/11 00:43:17;;;;;;;5.27;3.90;;;14.40;99.90;;;;;;5047523;28;20431;-82
2023/08/11 00:45:47;;;;;;;4.40;3.60;;;14.40;99.90;;;;;;5029557;28;20933;-82
2023/08/11 00:48:13;;;;;;;4.83;3.20;;;14.50;99.90;;;;;;5032899;28;20458;-82
2023/08/11 00:50:40;;;;;;;6.70;3.53;;;14.50;99.90;;;;;;5048617;28;20933;-82
2023/08/11 00:53:06;;;;;;;5.10;3.30;;;14.50;99.90;;;;;;5049361;28;20212;-83
2023/08/11 00:55:32;;;;;;;4.60;3.07;;;14.50;99.90;;;;;;5040495;28;20455;-83
2023/08/11 00:57:58;;;;;;;4.10;3.10;;;14.40;99.90;;;;;;5035223;28;20188;-83
2023/08/11 01:00:24;;;;;;;7.40;3.67;;;14.30;99.90;;;;;;5053208;28;20565;-85
2023/08/11 01:02:50;;;;;;;11.30;3.07;;;14.20;99.90;;;;;;5042242;28;20193;-83
2023/08/11 01:05:19;;;;;;;6.20;3.33;;;14.20;99.90;;;;;;5051996;28;20992;-81
2023/08/11 01:07:55;;;;;;;7.17;3.50;;;14.20;99.90;;;;;;5035722;28;20189;-82
2023/08/11 01:10:23;;;;;;;4.73;3.47;;;14.20;99.90;;;;;;5051359;28;20427;-81
2023/08/11 01:13:05;;;;;;;5.50;3.47;;;14.20;99.90;;;;;;5054597;28;20473;-81
2023/08/11 01:15:37;;;;;;;7.53;3.90;;;14.10;99.90;;;;;;5035861;28;20451;-82
2023/08/11 01:18:05;;;;;;;3.67;3.30;;;14.10;99.90;;;;;;5041111;28;20989;-82
2023/08/11 01:20:32;;;;;;;5.77;3.70;;;14.10;99.90;;;;;;5033077;28;20455;-79
2023/08/11 01:23:00;;;;;;;3.70;2.50;;;14.10;99.90;;;;;;5054541;28;20748;-82
2023/08/11 01:25:25;;;;;;;3.93;3.10;;;14.10;99.90;;;;;;5053361;28;20453;-82
2023/08/11 01:27:56;;;;;;;6.03;3.20;;;14.10;99.90;;;;;;5052645;28;20426;-84
2023/08/11 01:30:23;;;;;;;4.57;3.50;;;14.10;99.90;;;;;;5033615;28;20613;-83
2023/08/11 01:32:50;;;;;;;4.27;3.50;;;14.10;99.90;;;;;;5035180;28;20460;-79
2023/08/11 01:35:17;;;;;;;7.33;3.20;;;14.10;99.90;;;;;;5049749;28;20466;-82
2023/08/11 01:37:43;;;;;;;4.90;3.60;;;14.10;99.90;;;;;;5059713;28;20426;-82
2023/08/11 01:40:13;;;;;;;5.73;2.80;;;14.00;99.90;;;;;;5038995;28;20881;-83
2023/08/11 01:42:40;;;;;;;3.70;3.30;;;14.00;99.90;;;;;;5050505;28;20481;-82
2023/08/11 01:45:08;;;;;;;4.87;3.30;;;14.00;99.90;;;;;;5054312;28;20999;-82
2023/08/11 01:47:35;;;;;;;4.50;3.13;;;14.00;99.90;;;;;;5037648;28;20426;-83
2023/08/11 01:50:02;;;;;;;5.80;3.73;;;14.00;99.90;;;;;;5054182;28;20434;-83
2023/08/11 01:52:31;;;;;;;3.50;3.20;;;14.00;99.90;;;;;;5052330;28;20438;-83
2023/08/11 01:54:57;;;;;;;5.43;3.30;;;14.00;99.90;;;;;;5028520;28;21052;-81
2023/08/11 01:57:23;;;;;;;6.63;3.53;;;13.90;99.90;;;;;;5053428;28;20438;-85
2023/08/11 01:59:48;;;;;;;5.43;3.83;;;13.90;99.90;;;;;;5053867;28;20208;-84
2023/08/11 02:02:14;;;;;;;6.03;3.97;;;13.90;99.90;;;;;;5037922;28;20200;-81
2023/08/11 02:04:39;;;;;;;4.17;3.13;;;13.90;99.90;;;;;;5052333;28;20209;-81
2023/08/11 02:07:05;;;;;;;4.03;3.60;;;13.90;99.90;;;;;;5054610;28;20296;-83
2023/08/11 02:09:31;;;;;;;5.13;3.20;;;13.90;99.90;;;;;;5037145;28;20203;-83
2023/08/11 02:11:57;;;;;;;3.33;3.00;;;13.90;99.90;;;;;;5035813;28;20214;-82
2023/08/11 02:14:22;;;;;;;8.20;4.33;;;13.80;99.90;;;;;;5036247;28;20454;-81
2023/08/11 02:16:48;;;;;;;6.50;3.60;;;13.80;99.90;;;;;;5042824;28;20645;-82
2023/08/11 02:19:14;;;;;;;7.60;3.93;;;13.80;99.90;;;;;;5042868;28;20177;-85
2023/08/11 02:21:40;;;;;;;11.93;3.90;;;;;;;;;;5046709;28;20216;-84
2023/08/11 02:24:06;;;;;;;4.30;3.40;;;13.70;99.90;;;;;;5054407;28;20451;-82
2023/08/11 02:26:32;;;;;;;6.63;3.93;;;13.60;99.90;;;;;;5051391;28;20427;-83
2023/08/11 02:28:58;;;;;;;6.10;3.50;;;13.60;99.90;;;;;;5036613;28;20187;-81
2023/08/11 02:31:25;;;;;;;5.53;3.10;;;13.60;99.90;;;;;;5052113;28;20430;-84
2023/08/11 02:33:51;;;;;;;4.67;3.30;;;13.60;99.90;;;;;;5031876;28;20202;-83
2023/08/11 02:36:19;;;;;;;7.10;3.23;;;13.60;99.90;;;;;;5054929;28;20438;-82
2023/08/11 02:38:44;;;;;;;7.80;4.10;;;13.50;99.90;;;;;;5032603;28;20279;-81
2023/08/11 02:41:11;;;;;;;6.07;3.13;;;13.50;99.90;;;;;;5034367;28;20542;-83
2023/08/11 02:43:36;;;;;;;6.20;4.00;;;13.50;99.90;;;;;;5047359;28;20661;-81
2023/08/11 02:46:03;;;;;;;5.03;4.20;;;13.50;99.90;;;;;;5051462;28;20483;-83
2023/08/11 02:48:29;;;;;;;5.60;4.27;;;13.50;99.90;;;;;;5032604;28;20234;-80
2023/08/11 02:50:54;;;;;;;7.60;4.47;;;13.50;99.90;;;;;;5051699;28;20430;-82
2023/08/11 02:53:20;;;;;;;7.07;3.87;;;13.50;99.90;;;;;;5034396;28;20215;-85
2023/08/11 02:55:46;;;;;;;5.57;3.93;;;13.40;99.90;;;;;;5034221;28;20196;-83
2023/08/11 02:58:11;;;;;;;7.93;3.60;;;13.40;99.90;;;;;;5036880;28;21098;-82
2023/08/11 03:00:37;;;;;;;7.23;3.30;;;13.40;99.90;;;;;;5036611;28;20189;-82
2023/08/11 03:03:03;;;;;;;6.03;3.60;;;13.20;99.90;;;;;;5062186;28;20311;-83
2023/08/11 03:05:28;;;;;;;5.10;4.00;;;13.20;99.90;;;;;;5036882;28;20216;-84
2023/08/11 03:07:55;;;;;;;6.43;4.27;;;13.20;99.90;;;;;;5032907;28;20191;-81
2023/08/11 03:10:21;;;;;;;4.40;3.57;;;13.10;99.90;;;;;;5053448;28;20272;-84
2023/08/11 03:12:47;;;;;;;5.43;4.23;;;13.00;99.90;;;;;;5038965;28;20424;-84
2023/08/11 03:15:13;;;;;;;7.43;4.27;;;12.90;99.90;;;;;;5054522;28;20193;-83
2023/08/11 03:17:39;;;;;;;7.83;5.07;;;13.00;99.90;;;;;;5034736;28;20435;-81
2023/08/11 03:20:12;;;;;;;13.87;4.17;;;13.00;99.90;;;;;;5053584;28;20474;-84
2023/08/11 03:22:38;;;;;;;5.60;4.17;;;13.00;99.90;;;;;;5037767;28;20177;-83
2023/08/11 03:25:04;;;;;;;7.30;3.87;;;13.00;99.90;;;;;;5032856;28;20461;-82
2023/08/11 03:27:29;;;;;;;4.10;3.60;;;13.00;99.90;;;;;;5036101;28;20181;-83
2023/08/11 03:29:55;;;;;;;6.30;4.03;;;13.00;99.90;;;;;;5037240;28;21306;-82
2023/08/11 03:32:20;;;;;;;5.90;4.27;;;12.90;99.90;;;;;;5049532;28;20220;-81
2023/08/11 03:34:48;;;;;;;4.80;3.93;;;12.90;99.90;;;;;;5032611;28;20209;-82
2023/08/11 03:37:13;;;;;;;6.53;5.00;;;13.00;99.90;;;;;;5051019;28;20176;-82
2023/08/11 03:39:39;;;;;;;8.73;4.97;;;13.00;99.90;;;;;;5033051;28;20582;-81
2023/08/11 03:42:04;;;;;;;7.10;5.40;;;13.00;99.90;;;;;;5049783;28;20657;-80
2023/08/11 03:44:31;;;;;;;6.47;4.80;;;13.00;99.90;;;;;;5035547;28;20215;-82
2023/08/11 03:46:56;;;;;;;8.45;5.05;;;13.00;99.90;;;;;;5042524;28;20820;-81
2023/08/11 03:49:22;;;;;;;5.77;3.93;;;13.00;99.90;;;;;;5043408;28;20225;-81
2023/08/11 03:51:47;;;;;;;10.23;5.10;;;13.00;99.90;;;;;;5027982;28;20302;-82
2023/08/11 03:54:13;;;;;;;5.90;4.43;;;12.90;99.90;;;;;;5049899;28;20255;-83
2023/08/11 03:56:38;;;;;;;6.93;5.00;;;12.90;99.90;;;;;;5050058;28;20641;-82
2023/08/11 03:59:04;;;;;;;8.70;4.63;;;12.90;99.90;;;;;;5036822;28;21221;-83
2023/08/11 04:01:29;;;;;;;8.50;6.87;;;12.90;99.90;;;;;;5029102;28;20242;-82
2023/08/11 04:03:55;;;;;;;7.23;6.53;;;12.90;99.90;;;;;;5031574;28;20789;-82
2023/08/11 04:06:22;;;;;;;10.27;6.70;;;12.80;99.90;;;;;;5038740;28;20289;-81
2023/08/11 04:08:47;;;;;;;7.63;5.93;;;12.80;99.90;;;;;;5049240;28;20188;-81
2023/08/11 04:11:13;;;;;;;13.57;7.60;;;12.90;99.90;;;;;;5038456;28;20180;-82
2023/08/11 04:13:39;;;;;;;12.87;8.03;;;12.80;99.90;;;;;;5037420;28;20288;-82
2023/08/11 04:16:04;;;;;;;7.07;5.27;;;12.80;99.90;;;;;;5037063;28;20196;-81
2023/08/11 04:18:30;;;;;;;9.87;5.30;;;12.80;99.90;;;;;;5043601;28;20430;-83
2023/08/11 04:20:55;;;;;;;5.97;4.90;;;12.70;99.90;;;;;;5055404;28;20236;-84
2023/08/11 04:23:21;;;;;;;6.53;5.30;;;12.80;99.90;;;;;;5042065;28;20181;-84
2023/08/11 04:25:46;;;;;;;5.90;4.93;;;12.80;99.90;;;;;;5046090;28;20200;-84
2023/08/11 04:28:12;;;;;;;9.40;5.50;;;12.80;99.90;;;;;;5052329;28;20214;-81
2023/08/11 04:30:38;;;;;;;6.37;5.03;;;12.90;99.90;;;;;;5049325;28;20245;-81
2023/08/11 04:33:03;;;;;;;8.53;7.33;;;13.60;99.90;;;;;;5052745;28;20657;-83
2023/08/11 04:35:29;;;;;;;9.93;6.87;;;14.80;99.90;;;;;;5040060;28;20207;-83
2023/08/11 04:37:55;;;;;;;8.70;6.43;;;15.70;99.90;;;;;;5052760;28;20189;-85
2023/08/11 04:40:21;;;;;;;7.03;6.33;;;16.60;99.90;;;;;;5033168;28;20270;-81
2023/08/11 04:42:46;;;;;;;9.87;5.80;;;17.60;99.90;;;;;;5040351;28;20245;-83
2023/08/11 04:45:14;;;;;;;6.90;5.13;;;18.60;99.90;;;;;;5040556;28;20572;-82
2023/08/11 04:47:40;;;;;;;7.50;5.80;;;20.10;99.90;;;;;;5036167;28;20265;-82
2023/08/11 04:50:08;;;;;;;6.97;5.67;;;21.60;99.90;;;;;;5053544;28;21013;-84
2023/08/11 04:52:33;;;;;;;6.67;5.40;;;23.10;99.90;;;;;;5048205;28;20164;-85
2023/08/11 04:54:59;;;;;;;6.23;4.90;;;24.40;99.90;;;;;;5034263;28;21793;-85
2023/08/11 04:57:24;;;;;;;6.33;5.07;;;24.90;99.90;;;;;;5028992;28;20683;-87
2023/08/11 04:59:50;;;;;;;8.20;4.97;;;;;;;;;;5033019;28;20201;-85
2023/08/11 05:02:16;;;;;;;5.43;4.90;;;26.00;99.90;;;;;;5048243;28;20280;-85
2023/08/11 05:04:41;;;;;;;8.47;5.33;;;26.50;99.90;;;;;;5032083;28;20462;-84
2023/08/11 05:07:07;;;;;;;8.23;5.03;;;27.40;99.90;;;;;;5047875;28;20187;-84
2023/08/11 05:09:35;;;;;;;7.00;4.70;;;28.20;99.90;;;;;;5036095;28;20820;-86
2023/08/11 05:12:01;;;;;;;5.40;4.90;;;;;;;;;;5027372;28;20187;-85
2023/08/11 05:14:27;;;;;;;6.40;5.27;;;;;;;;;;5027898;28;20497;-85
2023/08/11 05:16:53;;;;;;;6.03;5.00;;;29.20;93.10;;;;;;5027771;28;20434;-84
2023/08/11 05:19:18;;;;;;;11.10;5.03;;;29.90;93.30;;;;;;5035717;28;20462;-85
2023/08/11 05:21:44;;;;;;;7.27;6.53;;;29.40;92.20;;;;;;5025064;28;20488;-85
2023/08/11 05:24:10;;;;;;;5.90;5.30;;;29.70;91.20;;;;;;5048238;28;20204;-83
2023/08/11 05:26:36;;;;;;;5.27;4.57;;;;;;;;;;5031861;28;20176;-84
2023/08/11 05:29:02;;;;;;;6.10;4.70;;;29.20;91.20;;;;;;5030543;28;20429;-86
2023/08/11 05:31:28;;;;;;;5.60;5.00;;;;;;;;;;5024809;28;20437;-87
2023/08/11 05:33:54;;;;;;;6.53;5.87;;;;;;;;;;5045988;28;20219;-84
2023/08/11 05:36:20;;;;;;;8.07;4.83;;;;;;;;;;5041441;28;20477;-86
2023/08/11 05:38:46;;;;;;;5.30;4.47;;;;;;;;;;5030806;28;20477;-87
2023/08/11 05:41:11;;;;;;;5.97;4.47;;;33.00;75.70;;;;;;5029730;28;20495;-88
2023/08/11 05:43:37;;;;;;;7.13;5.23;;;;;;;;;;5049374;28;20443;-84
2023/08/11 05:46:06;;;;;;;7.33;5.00;;;32.50;71.90;;;;;;5046870;28;20252;-87
2023/08/11 05:48:33;;;;;;;7.90;5.97;;;;;;;;;;5042957;28;20418;-84
2023/08/11 05:50:58;;;;;;;6.37;4.97;;;32.20;72.40;;;;;;5045449;28;20944;-85
2023/08/11 05:53:24;;;;;;;8.23;5.50;;;;;;;;;;5021441;28;20455;-85
2023/08/11 05:55:50;;;;;;;6.30;5.13;;;;;;;;;;5026625;28;20713;-88
2023/08/11 05:58:16;;;;;;;5.77;5.20;;;;;;;;;;5033241;28;20477;-85
2023/08/11 06:00:43;;;;;;;8.07;5.53;;;34.00;67.10;;;;;;5043115;28;20551;-86
2023/08/11 06:03:09;;;;;;;6.00;4.70;;;;;;;;;;5056057;28;20450;-84
2023/08/11 06:05:35;;;;;;;8.27;5.73;;;;;;;;;;5042433;28;20536;-87
2023/08/11 06:08:01;;;;;;;6.30;5.70;;;;;;;;;;5050447;28;20439;-87
2023/08/11 06:10:27;;;;;;;6.87;5.83;;;;;;;;;;5050837;28;20561;-86
2023/08/11 06:12:55;;;;;;;8.20;6.70;;;;;;;;;;5031301;28;20434;-85
2023/08/11 06:15:21;;;;;;;7.73;6.00;;;;;;;;;;5029245;28;20495;-88
2023/08/11 06:17:49;;;;;;;9.73;7.60;;;;;;;;;;5032822;28;21049;-86
2023/08/11 06:20:15;;;;;;;6.80;6.00;;;;;;;;;;5045473;28;20460;-85
2023/08/11 06:22:41;;;;;;;10.60;6.03;;;;;;;;;;5044029;28;20946;-86
2023/08/11 06:25:07;;;;;;;7.83;5.53;;;35.20;59.10;;;;;;5022914;28;20465;-84
2023/08/11 06:27:33;;;;;;;7.87;6.57;;;;;;;;;;5044357;28;20448;-88
2023/08/11 06:29:59;;;;;;;6.47;5.70;;;;;;;;;;5045448;28;20453;-86
2023/08/11 06:32:25;;;;;;;8.30;6.50;;;;;;;;;;5024659;28;20439;-86
2023/08/11 06:34:51;;;;;;;7.13;5.63;;;;;;;;;;5033666;28;21122;-84
2023/08/11 06:37:17;;;;;;;9.77;6.53;;;;;;;;;;5031104;28;20536;-85
2023/08/11 06:39:43;;;;;;;6.87;6.17;;;;;;;;;;5028525;28;20707;-85
2023/08/11 06:42:09;;;;;;;7.53;6.60;;;;;;;;;;5030467;28;20504;-85
2023/08/11 06:44:35;;;;;;;6.73;6.00;;;;;;;;;;5027085;28;20226;-86
2023/08/11 06:47:01;;;;;;;6.30;5.30;;;;;;;;;;5025988;28;20524;-89
2023/08/11 06:49:27;;;;;;;6.73;5.50;;;;;;;;;;5033276;28;21119;-84
2023/08/11 06:51:53;;;;;;;8.13;6.07;;;;;;;;;;5030205;28;20448;-85
2023/08/11 06:54:19;;;;;;;9.13;6.13;;;;;;;;;;5024572;28;20449;-87
2023/08/11 06:56:45;;;;;;;6.50;5.90;;;;;;;;;;5027921;28;20496;-86
2023/08/11 06:59:11;;;;;;;6.37;5.60;;;;;;;;;;5028072;28;20430;-86
2023/08/11 07:01:36;;;;;;;6.03;5.43;;;37.80;52.80;;;;;;5044290;28;20478;-88
2023/08/11 07:04:02;;;;;;;7.17;5.93;;;;;;;;;;5032817;28;20213;-91
2023/08/11 07:06:28;;;;;;;7.57;5.40;;;;;;;;;;5045278;28;20185;-86
2023/08/11 07:08:54;;;;;;;5.97;5.37;;;37.30;52.10;;;;;;5031147;28;20495;-88
2023/08/11 07:11:19;;;;;;;8.40;5.87;;;37.80;52.40;;;;;;5027959;28;20431;-87
2023/08/11 07:13:45;;;;;;;9.33;4.67;;;37.90;51.60;;;;;;5043528;28;20563;-89
2023/08/11 07:16:11;;;;;;;11.13;6.17;;;;;;;;;;5044771;28;20568;-87
2023/08/11 07:18:37;;;;;;;6.00;5.40;;;;;;;;;;5040855;28;20185;-86
2023/08/11 07:21:03;;;;;;;7.10;5.00;;;;;;;;;;5028115;28;20455;-86
2023/08/11 07:23:29;;;;;;;7.10;5.30;;;36.70;57.00;;;;;;5045011;28;20521;-86
2023/08/11 07:25:54;;;;;;;6.53;5.33;;;36.70;54.20;;;;;;5026700;28;20446;-83
2023/08/11 07:28:20;;;;;;;6.33;4.53;;;37.20;52.80;;;;;;5028126;28;20184;-85
2023/08/11 07:30:46;;;;;;;9.20;5.53;;;37.30;54.40;;;;;;5027304;28;20195;-86
2023/08/11 07:33:11;;;;;;;9.20;4.97;;;;;;;;;;5064873;28;20173;-83
2023/08/11 07:35:38;;;;;;;8.20;5.17;;;38.20;51.50;;;;;;5041437;28;20200;-86
2023/08/11 07:38:05;;;;;;;6.30;4.97;;;38.80;52.40;;;;;;5025682;28;20188;-86
2023/08/11 07:40:30;;;;;;;6.73;4.30;;;39.60;50.60;;;;;;5042798;28;20457;-86
2023/08/11 07:42:56;;;;;;;9.70;4.17;;;38.70;51.10;;;;;;5036297;28;21927;-87
2023/08/11 07:45:22;;;;;;;6.70;5.10;;;;;;;;;;5024188;28;20268;-87
2023/08/11 07:47:48;;;;;;;6.40;4.13;;;;;;;;;;5043577;28;20189;-86
2023/08/11 07:50:14;;;;;;;5.53;4.90;;;;;;;;;;5025766;28;21355;-85
2023/08/11 07:52:40;;;;;;;5.23;4.00;;;;;;;;;;5042612;28;20469;-87
2023/08/11 07:55:06;;;;;;;9.17;4.53;;;39.70;50.50;;;;;;5025980;28;20488;-86
2023/08/11 07:57:32;;;;;;;10.33;4.27;;;;;;;;;;5047190;28;20434;-88
2023/08/11 07:59:58;;;;;;;4.93;3.90;;;;;;;;;;5037953;28;20430;-88
2023/08/11 08:02:26;;;;;;;4.80;4.20;;;;;;;;;;5045314;28;20433;-86
2023/08/11 08:04:52;;;;;;;5.93;3.90;;;;;;;;;;5046503;28;20454;-86
2023/08/11 08:07:18;;;;;;;4.63;3.87;;;;;;;;;;5034974;28;20423;-85
2023/08/11 08:09:43;;;;;;;8.40;4.40;;;41.10;45.00;;;;;;5051071;28;20430;-88
2023/08/11 08:12:09;;;;;;;6.43;3.80;;;;;;;;;;5044918;28;20254;-86
2023/08/11 08:14:35;;;;;;;6.60;4.10;;;;;;;;;;5039166;28;20211;-87
2023/08/11 08:17:02;;;;;;;7.00;4.00;;;;;;;;;;5040708;28;20807;-87
2023/08/11 08:19:28;;;;;;;4.20;3.43;;;40.50;45.70;;;;;;5040790;28;20430;-85
2023/08/11 08:21:54;;;;;;;4.53;3.77;;;38.50;47.50;;;;;;5060927;28;20547;-86
2023/08/11 08:24:19;;;;;;;5.77;3.80;;;39.40;46.80;;;;;;5038112;28;20288;-85
2023/08/11 08:26:47;;;;;;;5.77;3.73;;;40.70;46.80;;;;;;5033866;28;20176;-87
2023/08/11 08:29:14;;;;;;;3.77;3.33;;;;;;;;;;5033245;28;20181;-87
2023/08/11 08:31:40;;;;;;;7.83;3.27;;;40.30;44.70;;;;;;5040771;28;20469;-84
2023/08/11 08:34:05;;;;;;;9.47;3.80;;;39.10;47.20;;;;;;5040657;28;20485;-87
2023/08/11 08:36:31;;;;;;;5.53;3.60;;;;;;;;;;5033561;28;20824;-86
2023/08/11 08:38:57;;;;;;;8.53;3.50;;;39.40;48.20;;;;;;5040461;28;20234;-84
2023/08/11 08:41:28;;;;;;;6.00;3.30;;;39.40;47.30;;;;;;5037783;28;20470;-85
2023/08/11 08:43:55;;;;;;;11.43;3.70;;;38.40;48.00;;;;;;5052015;28;20192;-85
2023/08/11 08:46:24;;;;;;;5.10;3.63;;;37.90;49.10;;;;;;5047732;28;20442;-89
2023/08/11 08:49:03;;;;;;;3.87;3.47;;;38.10;49.10;;;;;;5040476;28;20437;-87
2023/08/11 08:51:30;;;;;;;11.80;3.40;;;37.70;49.10;;;;;;5024075;28;21006;-88
2023/08/11 08:53:56;;;;;;;7.80;4.00;;;;;;;;;;5050252;28;20469;-86
2023/08/11 08:56:21;;;;;;;6.30;3.37;;;37.00;49.80;;;;;;5049995;28;20433;-87
2023/08/11 08:58:47;;;;;;;4.60;3.80;;;;;;;;;;5046629;28;20876;-84
2023/08/11 09:01:14;;;;;;;6.83;4.00;;;36.70;51.20;;;;;;5050671;28;20211;-87
2023/08/11 09:03:42;;;;;;;5.70;3.93;;;36.40;51.90;;;;;;5037186;28;20976;-87
2023/08/11 09:06:09;;;;;;;4.10;3.50;;;36.40;52.50;;;;;;5053802;28;21078;-87
2023/08/11 09:08:39;;;;;;;4.17;3.33;;;36.90;52.30;;;;;;5047650;28;20447;-87
2023/08/11 09:11:05;;;;;;;3.80;3.40;;;36.90;53.00;;;;;;5051582;28;20514;-87
2023/08/11 09:13:33;;;;;;;3.87;3.53;;;38.40;54.70;;;;;;5031716;28;20446;-86
2023/08/11 09:15:59;;;;;;;4.20;3.30;;;38.30;50.20;;;;;;5032673;28;20435;-85
2023/08/11 09:18:25;;;;;;;3.63;3.00;;;;;;;;;;5027161;28;20447;-86
2023/08/11 09:20:52;;;;;;;9.97;3.20;;;39.50;44.10;;;;;;5049296;28;20474;-87
2023/08/11 09:23:18;;;;;;;7.53;3.97;;;41.90;43.60;;;;;;5033086;28;20439;-84
2023/08/11 09:25:45;;;;;;;4.13;3.20;;;;;;;;;;5032231;28;20451;-85
2023/08/11 09:28:11;;;;;;;3.60;2.40;;;;;;;;;;5028537;28;21232;-84
2023/08/11 09:30:37;;;;;;;3.17;2.87;;;41.40;41.00;;;;;;5040760;28;20683;-86
2023/08/11 09:33:03;;;;;;;2.80;2.43;;;40.70;38.20;;;;;;5026448;28;20932;-85
2023/08/11 09:35:29;;;;;;;3.90;2.80;;;39.60;42.10;;;;;;5033401;28;20255;-86
2023/08/11 09:37:56;;;;;;;6.00;3.27;;;39.90;42.60;;;;;;5026795;28;21151;-84
2023/08/11 09:40:22;;;;;;;4.83;2.80;;;39.40;41.90;;;;;;5028084;28;20327;-86
2023/08/11 09:42:47;;;;;;;3.20;2.70;;;39.00;41.00;;;;;;5033520;28;20514;-87
2023/08/11 09:45:13;;;;;;;4.87;3.23;;;38.30;42.80;;;;;;5031699;28;20461;-85
2023/08/11 09:47:39;;;;;;;3.87;3.30;;;38.50;42.60;;;;;;5032815;28;20188;-85
2023/08/11 09:50:05;;;;;;;3.03;2.73;;;39.30;45.00;;;;;;5032262;28;20288;-85
2023/08/11 09:52:37;;;;;;;7.03;4.13;;;40.20;42.90;;;;;;5028065;28;20191;-86
2023/08/11 09:55:06;;;;;;;5.67;2.70;;;39.30;40.70;;;;;;5048827;28;20462;-87
2023/08/11 09:57:33;;;;;;;4.77;3.00;;;39.90;43.60;;;;;;5047310;28;20439;-86
2023/08/11 10:00:00;;;;;;;3.97;3.30;;;38.90;42.40;;;;;;5044552;28;20434;-86
2023/08/11 10:02:30;;;;;;;3.03;2.40;;;38.90;42.90;;;;;;5029459;28;20462;-85
2023/08/11 10:04:58;;;;;;;6.60;3.43;;;38.40;43.90;;;;;;5046329;28;20455;-83
2023/08/11 10:07:34;;;;;;;7.50;3.40;;;38.20;44.40;;;;;;5038583;28;20521;-87
2023/08/11 10:10:02;;;;;;;3.80;2.73;;;38.50;42.80;;;;;;5050887;28;20556;-84
2023/08/11 10:12:28;;;;;;;9.83;2.87;;;;;;;;;;5043194;28;20434;-86
2023/08/11 10:14:54;;;;;;;5.80;3.60;;;38.60;43.00;;;;;;5053434;28;20451;-86
2023/08/11 10:17:20;;;;;;;8.87;3.30;;;38.40;43.10;;;;;;5034479;28;20465;-84
2023/08/11 10:19:46;;;;;;;4.27;3.37;;;;;;;;;;5047268;28;20845;-83
2023/08/11 10:22:12;;;;;;;5.13;3.47;;;37.90;43.70;;;;;;5049394;28;21015;-87
2023/08/11 10:24:37;;;;;;;4.17;2.83;;;37.60;43.20;;;;;;5024971;28;20480;-88
2023/08/11 10:27:05;;;;;;;5.30;2.87;;;37.00;44.10;;;;;;5035126;28;20180;-87
2023/08/11 10:29:31;;;;;;;4.13;3.77;;;37.00;43.80;;;;;;5035581;28;20530;-85
2023/08/11 10:31:58;;;;;;;4.83;3.63;;;35.50;47.00;;;;;;5045684;28;20468;-84
2023/08/11 10:34:25;;;;;;;4.93;3.43;;;33.70;51.00;;;;;;5048930;28;20457;-85
2023/08/11 10:36:54;;;;;;;5.23;3.23;;;32.70;53.10;;;;;;5047258;28;20795;-84
2023/08/11 10:39:20;;;;;;;3.60;3.30;;;31.60;53.10;;;;;;5026370;28;21109;-83
2023/08/11 10:41:46;;;;;;;7.03;2.90;;;30.50;57.20;;;;;;5025267;28;20463;-87
2023/08/11 10:44:18;;;;;;;6.73;3.20;;;30.10;56.80;;;;;;5027015;28;20456;-86
2023/08/11 10:46:44;;;;;;;5.53;4.00;;;29.80;57.70;;;;;;5043185;28;20471;-85
2023/08/11 10:49:10;;;;;;;4.70;2.73;;;29.40;59.50;;;;;;5046124;28;20442;-88
2023/08/11 10:51:40;;;;;;;5.43;3.30;;;28.90;62.70;;;;;;5041883;28;20498;-87
2023/08/11 10:54:06;;;;;;;9.40;3.83;;;29.10;61.90;;;;;;5033203;28;20201;-83
2023/08/11 10:56:37;;;;;;;5.67;3.57;;;29.50;60.00;;;;;;5046203;28;20436;-85
2023/08/11 10:59:17;;;;;;;4.13;3.70;;;29.70;59.20;;;;;;5044968;28;20275;-86
2023/08/11 11:01:48;;;;;;;5.73;3.57;;;29.60;63.90;;;;;;5028128;28;20846;-86
2023/08/11 11:04:16;;;;;;;3.93;3.10;;;29.20;61.00;;;;;;5030986;28;20466;-84
2023/08/11 11:06:44;;;;;;;4.53;3.03;;;28.80;63.50;;;;;;5037499;28;20450;-85
2023/08/11 11:09:10;;;;;;;4.63;3.40;;;28.60;65.60;;;;;;5027401;28;20920;-85
2023/08/11 11:11:38;;;;;;;4.10;3.70;;;28.80;63.30;;;;;;5024587;28;20448;-86
2023/08/11 11:14:05;;;;;;;6.80;3.87;;;28.90;63.90;;;;;;5044123;28;20243;-85
2023/08/11 11:16:32;;;;;;;7.20;3.33;;;28.90;65.10;;;;;;5028796;28;20435;-86
2023/08/11 11:19:03;;;;;;;4.23;3.70;;;28.70;63.90;;;;;;5027426;28;20465;-85
2023/08/11 11:21:29;;;;;;;5.97;3.50;;;28.70;63.10;;;;;;5046029;28;20459;-85
2023/08/11 11:23:54;;;;;;;6.40;3.60;;;28.50;70.80;;;;;;5037402;28;20815;-83
2023/08/11 11:26:31;;;;;;;3.23;2.87;;;28.20;70.80;;;;;;5028961;28;20437;-88
2023/08/11 11:29:02;;;;;;;7.87;3.47;;;28.20;70.10;;;;;;5020512;28;20183;-83
2023/08/11 11:31:29;;;;;;;6.80;3.37;;;28.40;71.40;;;;;;5046056;28;20446;-87
2023/08/11 11:33:55;;;;;;;4.13;3.30;;;28.50;72.60;;;;;;5048417;28;20473;-86
2023/08/11 11:36:22;;;;;;;4.60;3.27;;;28.60;72.50;;;;;;5042825;28;20446;-84
2023/08/11 11:38:48;;;;;;;4.60;3.60;;;28.70;70.00;;;;;;5038698;28;20251;-87
2023/08/11 11:41:16;;;;;;;4.13;3.33;;;28.80;67.50;;;;;;5040543;28;20459;-87
2023/08/11 11:43:44;;;;;;;9.10;3.73;;;28.90;69.60;;;;;;5046603;28;21009;-84
2023/08/11 11:46:16;;;;;;;5.43;3.30;;;28.50;72.80;;;;;;5031580;28;20720;-88
2023/08/11 11:48:51;;;;;;;4.80;3.33;;;28.80;73.80;;;;;;5031013;28;20441;-85
2023/08/11 11:51:19;;;;;;;4.50;4.03;;;29.20;68.50;;;;;;5022544;28;20538;-83
2023/08/11 11:53:45;;;;;;;6.17;3.63;;;29.20;70.30;;;;;;5041616;28;20444;-85
2023/08/11 11:56:15;;;;;;;5.07;3.50;;;29.40;65.80;;;;;;5041111;28;20439;-87
2023/08/11 11:58:43;;;;;;;5.53;3.77;;;29.40;67.40;;;;;;5028424;28;20471;-87
2023/08/11 12:01:29;;;;;;;9.60;3.67;;;29.60;65.70;;;;;;5046058;28;20551;-87
2023/08/11 12:04:00;;;;;;;4.87;3.87;;;29.60;67.30;;;;;;5026856;28;20471;-86
2023/08/11 12:06:28;;;;;;;4.83;3.47;;;29.60;67.30;;;;;;5031615;28;20436;-84
2023/08/11 12:09:08;;;;;;;4.20;3.10;;;29.50;67.70;;;;;;5030469;28;20478;-83
2023/08/11 12:11:33;;;;;;;3.87;3.30;;;29.70;66.00;;;;;;5039734;28;20438;-86
2023/08/11 12:14:00;;;;;;;5.00;3.63;;;29.60;67.60;;;;;;5048005;28;20462;-86
2023/08/11 12:16:26;;;;;;;8.00;3.00;;;29.60;65.30;;;;;;5032641;28;20190;-85
2023/08/11 12:18:52;;;;;;;4.97;3.50;;;29.70;66.80;;;;;;5029962;28;20448;-85
2023/08/11 12:21:18;;;;;;;4.67;3.67;;;29.50;69.00;;;;;;5028826;28;20478;-86
2023/08/11 12:23:43;;;;;;;5.20;3.60;;;29.50;67.80;;;;;;5048421;28;20192;-83
2023/08/11 12:26:09;;;;;;;3.40;3.10;;;29.30;70.40;;;;;;5052899;28;20951;-85
2023/08/11 12:28:35;;;;;;;3.33;3.03;;;29.50;70.10;;;;;;5041796;28;20275;-86
2023/08/11 12:31:03;;;;;;;4.87;3.90;;;29.80;71.40;;;;;;5042093;28;20272;-86
2023/08/11 12:33:28;;;;;;;4.80;3.97;;;29.50;70.40;;;;;;5027221;28;21073;-87
2023/08/11 12:35:54;;;;;;;4.67;3.77;;;29.60;72.30;;;;;;5028855;28;20462;-86
2023/08/11 12:38:20;;;;;;;5.57;4.00;;;29.60;69.10;;;;;;5031847;28;20467;-85
2023/08/11 12:40:47;;;;;;;4.10;3.30;;;29.60;69.40;;;;;;5042898;28;21031;-86
2023/08/11 12:43:13;;;;;;;4.90;3.23;;;29.80;67.70;;;;;;5040206;28;20537;-87
2023/08/11 12:45:40;;;;;;;3.73;3.10;;;29.90;67.50;;;;;;5050046;28;20479;-85
2023/08/11 12:48:07;;;;;;;6.33;3.90;;;30.20;72.60;;;;;;5032749;28;20450;-82
2023/08/11 12:50:33;;;;;;;4.07;3.67;;;30.50;69.80;;;;;;5047504;28;20458;-87
2023/08/11 12:53:00;;;;;;;4.10;3.30;;;30.70;67.70;;;;;;5036413;28;20482;-85
2023/08/11 12:55:26;;;;;;;5.23;3.70;;;30.90;66.60;;;;;;5032669;28;20490;-86
2023/08/11 12:57:52;;;;;;;3.50;2.93;;;30.70;68.40;;;;;;5046401;28;20540;-86
2023/08/11 13:00:18;;;;;;;7.33;4.00;;;30.60;69.70;;;;;;5033829;28;20460;-82
2023/08/11 13:02:46;;;;;;;3.70;3.40;;;30.90;67.70;;;;;;5039313;28;20276;-86
2023/08/11 13:05:11;;;;;;;4.17;3.40;;;30.80;67.40;;;;;;5032700;28;20495;-84